This is the latest recevied weather packets stored in our database for station/object VK4SSH. If no packets are shown the sender has not sent any weather packets the latest 10 day(s).
| Time | Temp. | Humidity | Pressure | Rain* | Wind** | Luminosity | Snow |
|---|---|---|---|---|---|---|---|
| 1777680928 | 24.44° C | 77% | - | 0 mm | - | - | - |
| 1777680328 | 23.89° C | 79% | - | 0 mm | - | - | - |
| 1777679728 | 24.44° C | 77% | - | 0 mm | - | - | - |
| 1777679128 | 24.44° C | 78% | - | 0 mm | - | - | - |
| 1777678528 | 23.89° C | 81% | - | 0 mm | - | - | - |
| 1777677928 | 23.33° C | 82% | - | 0 mm | - | - | - |
| 1777677328 | 23.33° C | 86% | - | 0 mm | - | - | - |
| 1777676728 | 22.78° C | 88% | - | 0 mm | - | - | - |
| 1777676128 | 22.22° C | 90% | - | 0 mm | - | - | - |
| 1777675528 | 21.67° C | 92% | - | 0 mm | - | - | - |
| 1777674928 | 21.11° C | 94% | - | 0 mm | - | - | - |
| 1777674330 | 21.11° C | 96% | - | 0 mm | - | - | - |
| 1777673729 | 20.56° C | 97% | - | 0 mm | - | - | - |
| 1777673128 | 20° C | 97% | - | 0 mm | - | - | - |
| 1777672528 | 20° C | 97% | - | 0 mm | - | - | - |
| 1777671940 | 20° C | 97% | - | 0 mm | - | - | - |
| 1777671328 | 20° C | 97% | - | 0 mm | - | - | - |
| 1777670728 | 20° C | 97% | - | 0 mm | - | - | - |
| 1777670128 | 19.44° C | 97% | - | 0 mm | - | - | - |
| 1777669528 | 19.44° C | 98% | - | 0 mm | - | - | - |
| 1777668928 | 19.44° C | 98% | - | 0 mm | - | - | - |
| 1777668328 | 19.44° C | 98% | - | 0 mm | - | - | - |
| 1777667728 | 19.44° C | 98% | - | 0 mm | - | - | - |
| 1777667127 | 19.44° C | 98% | - | 0 mm | - | - | - |
| 1777666528 | 19.44° C | 98% | - | 0 mm | - | - | - |
* Rain latest hour (hover to see other rain measurements)
** Current wind speed in m/s (hover to see current wind gust speed)